Time;durP1;ratioP1;P1;durP2;ratioP2;P2;SDS_P1;SDS_P2;PMS_P1;PMS_P2;Temp;Humidity;BMP_temperature;BMP_pressure;BME280_temperature;BME280_humidity;BME280_pressure;Samples;Min_cycle;Max_cycle;Signal;HPM_P1;HPM_P2
2024/01/25 00:00:37;;;;;;;9.60;2.70;;;;;;;6.09;79.43;99945.00;137099;1276;22442;-77
2024/01/25 00:03:41;;;;;;;7.40;2.60;;;;;;;6.07;79.29;99940.23;137087;1276;22359;-76
2024/01/25 00:06:42;;;;;;;8.60;2.40;;;;;;;6.08;79.29;99941.16;136934;1276;22364;-76
2024/01/25 00:09:43;;;;;;;9.90;2.40;;;;;;;6.07;79.24;99939.65;137069;1276;22343;-77
2024/01/25 00:12:43;;;;;;;;;;;;;;;6.05;79.30;99937.88;137130;1276;23549;-76
2024/01/25 00:15:44;;;;;;;9.80;2.40;;;;;;;6.05;79.29;99939.54;137103;1276;23273;-76
2024/01/25 00:18:44;;;;;;;;;;;;;;;6.03;79.48;99937.45;137129;1276;23675;-76
2024/01/25 00:21:45;;;;;;;10.90;2.60;;;;;;;6.02;79.59;99934.20;136898;1276;22231;-79
2024/01/25 00:24:46;;;;;;;;;;;;;;;6.04;79.67;99944.12;137133;1276;22406;-76
2024/01/25 00:27:47;;;;;;;10.90;2.40;;;;;;;6.02;79.60;99949.22;137113;1276;22401;-77
2024/01/25 00:30:48;;;;;;;12.70;3.30;;;;;;;6.00;79.74;99951.10;137116;1276;22367;-76
2024/01/25 00:33:48;;;;;;;;;;;;;;;5.98;80.11;99952.95;137138;1276;22423;-77
2024/01/25 00:36:49;;;;;;;10.00;2.40;;;;;;;5.97;79.91;99954.86;137103;1276;22488;-76
2024/01/25 00:39:50;;;;;;;17.20;3.90;;;;;;;5.96;80.17;99957.88;137107;1276;22377;-76
2024/01/25 00:42:55;;;;;;;15.00;3.30;;;;;;;5.96;80.28;99967.25;137148;1277;22358;-76
2024/01/25 00:45:56;;;;;;;13.90;2.90;;;;;;;5.94;80.20;99976.21;137161;1276;23070;-76
2024/01/25 00:48:57;;;;;;;13.40;2.90;;;;;;;5.92;80.30;99972.30;137148;1276;22403;-76
2024/01/25 00:52:02;;;;;;;12.80;3.30;;;;;;;5.94;80.17;99979.02;137135;1276;22410;-76
2024/01/25 00:55:03;;;;;;;11.50;2.60;;;;;;;5.94;80.09;99974.78;137108;1276;22216;-77
2024/01/25 00:58:04;;;;;;;16.10;3.20;;;;;;;5.95;80.26;99976.08;137160;1276;22366;-76
2024/01/25 01:01:06;;;;;;;14.40;3.00;;;;;;;5.96;80.12;99974.96;137124;1277;22344;-77
2024/01/25 01:04:07;;;;;;;17.60;3.10;;;;;;;5.96;80.21;99972.11;137117;1274;22367;-76
2024/01/25 01:07:08;;;;;;;9.00;3.00;;;;;;;5.98;80.00;99979.34;137117;1273;22386;-76
2024/01/25 01:10:09;;;;;;;12.30;2.80;;;;;;;5.99;79.68;99978.92;137138;1277;23403;-77
2024/01/25 01:13:10;;;;;;;13.00;2.70;;;;;;;6.00;79.61;99980.67;137108;1275;22350;-76
2024/01/25 01:16:10;;;;;;;;;;;;;;;6.03;79.25;99981.51;137180;1276;22387;-76
2024/01/25 01:19:11;;;;;;;10.40;2.50;;;;;;;6.04;79.33;99980.49;137113;1276;22830;-76
2024/01/25 01:22:12;;;;;;;12.40;2.80;;;;;;;6.07;79.05;99983.73;136943;1275;22382;-76
2024/01/25 01:25:13;;;;;;;;;;;;;;;6.09;78.93;99981.66;137164;1276;22409;-76
2024/01/25 01:28:14;;;;;;;15.60;3.20;;;;;;;6.10;78.69;99986.51;136961;1276;22342;-77
2024/01/25 01:31:15;;;;;;;12.20;3.20;;;;;;;6.10;78.54;99993.83;137160;1276;22228;-76
2024/01/25 01:34:17;;;;;;;;;;;;;;;6.08;78.46;99991.54;137166;1276;22371;-76
2024/01/25 01:37:18;;;;;;;7.50;2.40;;;;;;;6.06;78.21;99998.97;137093;1276;22488;-76
2024/01/25 01:40:18;;;;;;;;;;;;;;;6.05;78.25;100006.20;137134;1276;22433;-77
2024/01/25 01:43:20;;;;;;;13.00;2.90;;;;;;;6.02;77.97;100004.90;137158;1276;22296;-77
2024/01/25 01:46:27;;;;;;;11.60;3.00;;;;;;;5.99;78.34;100001.19;137149;1276;22364;-77
2024/01/25 01:49:28;;;;;;;18.00;3.60;;;;;;;5.97;78.04;100000.49;136954;1276;22301;-77
2024/01/25 01:52:31;;;;;;;14.50;3.30;;;;;;;5.94;78.07;99999.39;137152;1276;22376;-76
2024/01/25 01:55:32;;;;;;;11.90;2.90;;;;;;;5.94;77.64;99994.29;136924;1276;23119;-76
2024/01/25 01:58:34;;;;;;;8.60;3.20;;;;;;;5.95;77.44;99993.30;136958;1276;22433;-76
2024/01/25 02:01:37;;;;;;;18.00;3.80;;;;;;;5.96;77.34;99995.26;136963;1275;22353;-76
2024/01/25 02:04:38;;;;;;;14.20;3.30;;;;;;;5.94;77.11;99994.06;137083;1276;23190;-76
2024/01/25 02:07:42;;;;;;;11.80;2.60;;;;;;;5.93;76.97;99991.52;137174;1276;22421;-76
2024/01/25 02:10:45;;;;;;;13.90;3.10;;;;;;;5.94;76.88;99986.16;137154;1277;22341;-76
2024/01/25 02:13:47;;;;;;;;;;;;;;;5.97;76.44;99986.27;136937;1277;22390;-77
2024/01/25 02:16:48;;;;;;;19.30;3.90;;;;;;;5.99;76.38;99994.88;137115;1272;22437;-77
2024/01/25 02:20:34;;;;;;;;;;;;;;;5.99;76.42;99982.41;137176;1277;22428;-77
2024/01/25 02:23:17;;;;;;;14.10;3.00;;;;;;;5.98;75.93;99983.54;137051;1277;22419;-77
2024/01/25 02:26:38;;;;;;;9.30;2.70;;;;;;;6.01;75.49;99988.38;136951;1276;22423;-76
2024/01/25 02:29:43;;;;;;;12.10;3.10;;;;;;;6.04;75.67;99987.70;137149;1276;22314;-76
2024/01/25 02:32:44;;;;;;;;;;;;;;;6.04;75.26;99990.01;136946;1276;22542;-77
2024/01/25 02:35:44;;;;;;;15.50;2.90;;;;;;;6.03;75.08;99986.54;137177;1276;22409;-77
2024/01/25 02:38:45;;;;;;;14.10;3.00;;;;;;;6.01;74.83;99978.15;137110;1276;22486;-77
2024/01/25 02:41:46;;;;;;;;;;;;;;;6.00;74.61;99967.06;137137;1276;22469;-76
2024/01/25 02:44:47;;;;;;;9.80;2.80;;;;;;;5.98;74.62;99978.98;137165;1276;22376;-77
2024/01/25 02:47:50;;;;;;;10.70;2.70;;;;;;;5.96;74.90;99977.40;137155;1276;22378;-77
2024/01/25 02:51:00;;;;;;;17.70;3.60;;;;;;;5.91;74.49;99970.07;137201;1276;23104;-77
2024/01/25 02:54:10;;;;;;;13.70;3.10;;;;;;;5.90;74.40;99976.89;137123;1275;22345;-77
2024/01/25 02:57:13;;;;;;;13.70;3.30;;;;;;;5.90;74.27;99975.48;137115;1276;22309;-76
2024/01/25 03:00:14;;;;;;;10.50;2.30;;;;;;;5.90;74.34;99987.42;137139;1276;22254;-76
2024/01/25 03:03:17;;;;;;;14.10;2.90;;;;;;;5.91;74.20;99992.53;137154;1276;22396;-76
2024/01/25 03:06:20;;;;;;;13.00;2.80;;;;;;;5.92;74.04;99995.83;136977;1276;22320;-77
2024/01/25 03:09:33;;;;;;;12.60;3.90;;;;;;;5.93;73.92;99997.46;136995;1276;22369;-76
2024/01/25 03:13:28;;;;;;;11.50;3.20;;;;;;;5.92;74.13;99994.91;136998;1276;22300;-77
2024/01/25 03:16:29;;;;;;;13.80;3.90;;;;;;;5.90;74.33;99995.61;137125;1276;22381;-76
2024/01/25 03:19:33;;;;;;;13.90;2.60;;;;;;;5.90;73.98;99995.35;137169;1276;22405;-77
2024/01/25 03:22:48;;;;;;;12.20;4.00;;;;;;;5.92;74.18;100001.48;137167;1276;22388;-77
2024/01/25 03:26:28;;;;;;;11.90;2.90;;;;;;;5.92;73.85;100006.88;137137;1276;22311;-77
2024/01/25 03:29:28;;;;;;;16.50;3.20;;;;;;;5.92;74.28;100009.70;137167;1276;22375;-76
2024/01/25 03:32:29;;;;;;;12.90;3.40;;;;;;;5.92;74.03;100006.89;137204;1276;22366;-76
2024/01/25 03:35:30;;;;;;;7.80;2.40;;;;;;;5.95;73.71;100004.20;137172;1276;22348;-77
2024/01/25 03:38:31;;;;;;;11.40;2.50;;;;;;;5.97;73.59;100006.29;137178;1276;22307;-77
2024/01/25 03:41:34;;;;;;;16.10;3.60;;;;;;;5.99;74.10;100007.65;136882;1276;23003;-79
2024/01/25 03:44:35;;;;;;;12.80;3.20;;;;;;;5.98;73.56;100001.74;137174;1276;22235;-76
2024/01/25 03:47:38;;;;;;;10.00;2.80;;;;;;;6.01;73.50;100002.23;137149;1276;22370;-76
2024/01/25 03:50:48;;;;;;;9.80;3.00;;;;;;;6.01;73.73;99999.19;137188;1277;22358;-77
2024/01/25 03:53:59;;;;;;;12.60;3.10;;;;;;;6.00;73.75;100003.38;137152;1276;22416;-77
2024/01/25 03:57:55;;;;;;;;;;;;;;;;;;;;;
2024/01/25 04:01:08;;;;;;;12.60;3.00;;;;;;;6.00;73.72;99992.10;136953;1276;22381;-77
2024/01/25 04:04:29;;;;;;;;;;;;;;;;;;;;;
2024/01/25 04:08:13;;;;;;;;;;;;;;;6.02;73.96;99982.86;137184;1276;22456;-76
2024/01/25 04:11:42;;;;;;;16.10;3.00;;;;;;;6.01;73.54;99980.42;137096;1276;22438;-77
2024/01/25 04:14:49;;;;;;;17.40;3.80;;;;;;;6.04;73.78;99979.14;137168;1276;22309;-77
2024/01/25 04:17:53;;;;;;;11.10;2.70;;;;;;;6.02;73.84;99964.57;137156;1276;22380;-77
2024/01/25 04:20:54;;;;;;;13.90;2.80;;;;;;;5.99;73.60;99961.48;136950;1274;22417;-76
2024/01/25 04:23:57;;;;;;;12.80;2.90;;;;;;;6.01;73.34;99958.66;137160;1276;22383;-77
2024/01/25 04:26:57;;;;;;;;;;;;;;;6.03;73.47;99963.46;136946;1276;22397;-77
2024/01/25 04:30:32;;;;;;;;;;;;;;;;;;;;;
2024/01/25 04:33:59;;;;;;;13.90;3.30;;;;;;;5.97;73.22;99958.16;136927;1276;22381;-76
2024/01/25 04:37:38;;;;;;;15.10;3.40;;;;;;;5.96;73.25;99968.58;137174;1276;22316;-76
2024/01/25 04:40:46;;;;;;;12.70;3.10;;;;;;;5.97;73.22;99979.20;137074;1276;23109;-77
2024/01/25 04:43:55;;;;;;;10.40;2.80;;;;;;;6.02;73.41;99986.48;137015;1276;22316;-77
2024/01/25 04:46:56;;;;;;;;;;;;;;;6.01;73.80;99989.21;137212;1276;22405;-76
2024/01/25 04:49:57;;;;;;;9.70;2.20;;;;;;;5.96;74.18;99989.66;137134;1270;23234;-76
2024/01/25 04:52:57;;;;;;;;;;;;;;;5.92;74.13;99990.25;136963;1276;23088;-76
2024/01/25 04:56:15;;;;;;;;;;;;;;;;;;;;;
2024/01/25 04:59:23;;;;;;;13.20;3.20;;;;;;;5.82;75.02;99988.31;137124;1276;22366;-77
2024/01/25 05:02:24;;;;;;;13.10;3.10;;;;;;;5.77;75.42;99988.73;137184;1274;22308;-77
2024/01/25 05:05:35;;;;;;;14.70;3.00;;;;;;;5.71;75.52;99984.20;137193;1276;22403;-77
2024/01/25 05:08:52;;;;;;;8.70;2.70;;;;;;;5.70;76.03;99985.57;137144;1276;23104;-77
2024/01/25 05:12:10;;;;;;;7.30;2.50;;;;;;;5.69;76.15;99981.58;137148;1276;23175;-77
2024/01/25 05:15:10;;;;;;;15.60;2.80;;;;;;;5.70;76.38;99988.50;137125;1276;23126;-77
2024/01/25 05:18:11;;;;;;;;;;;;;;;5.70;76.22;99984.85;136965;1276;23064;-76
2024/01/25 05:21:15;;;;;;;12.10;3.00;;;;;;;5.68;76.48;99984.51;137109;1276;23070;-76
2024/01/25 05:24:32;;;;;;;8.70;2.60;;;;;;;5.67;76.47;99983.35;136981;1276;22401;-76
2024/01/25 05:27:35;;;;;;;13.90;3.00;;;;;;;5.67;76.53;99982.07;137137;1276;23172;-77
2024/01/25 05:31:16;;;;;;;;;;;;;;;;;;;;;
2024/01/25 05:34:43;;;;;;;8.80;2.70;;;;;;;5.70;76.60;99986.76;137122;1276;22404;-76
2024/01/25 05:37:59;;;;;;;11.10;2.50;;;;;;;5.72;76.76;99995.65;137182;1276;22379;-76
2024/01/25 05:41:00;;;;;;;8.80;2.30;;;;;;;5.74;76.61;100002.33;137185;1276;23157;-76
2024/01/25 05:44:01;;;;;;;14.30;2.70;;;;;;;5.75;76.51;100017.85;137129;1276;23469;-77
2024/01/25 05:47:02;;;;;;;11.70;2.70;;;;;;;5.76;76.78;100032.50;136998;1276;22989;-77
2024/01/25 05:50:04;;;;;;;12.70;3.10;;;;;;;5.77;76.88;100037.56;137112;1276;23046;-76
2024/01/25 05:53:36;;;;;;;;;;;;;;;;;;;;;
2024/01/25 05:58:06;;;;;;;12.10;2.70;;;;;;;5.76;77.13;100023.23;136965;1276;22398;-77
2024/01/25 06:01:41;;;;;;;11.30;2.70;;;;;;;5.77;76.70;100023.86;136827;1276;22389;-76
2024/01/25 06:05:08;;;;;;;;;;;;;;;;;;;;;
2024/01/25 06:08:38;;;;;;;8.50;3.00;;;;;;;5.81;76.57;100029.64;137168;1276;22800;-77
2024/01/25 06:11:42;;;;;;;9.10;2.70;;;;;;;5.79;76.32;100021.70;137158;1276;23053;-77
2024/01/25 06:14:45;;;;;;;15.00;3.80;;;;;;;5.79;76.19;100016.09;137144;1276;23121;-76
2024/01/25 06:17:48;;;;;;;10.70;2.80;;;;;;;5.81;76.03;100021.55;137000;1276;23273;-77
2024/01/25 06:20:48;;;;;;;;;;;;;;;5.82;75.94;100031.63;137051;1276;23173;-77
2024/01/25 06:23:52;;;;;;;13.30;3.10;;;;;;;5.83;76.00;100034.21;136982;1276;23107;-77
2024/01/25 06:26:53;;;;;;;8.70;2.90;;;;;;;5.83;75.75;100032.27;137162;1276;22347;-77
2024/01/25 06:29:54;;;;;;;12.80;2.90;;;;;;;5.82;76.00;100029.89;137045;1276;23584;-76
2024/01/25 06:32:55;;;;;;;14.60;3.90;;;;;;;5.79;75.83;100035.61;137143;1276;23207;-76
2024/01/25 06:35:58;;;;;;;16.60;4.00;;;;;;;5.74;76.26;100039.34;137029;1276;22382;-77
2024/01/25 06:38:58;;;;;;;11.80;3.30;;;;;;;5.69;76.57;100037.44;137122;1276;23186;-77
2024/01/25 06:41:59;;;;;;;;;;;;;;;5.65;76.67;100039.31;137130;1276;22453;-77
2024/01/25 06:45:00;;;;;;;11.70;3.80;;;;;;;5.61;76.94;100030.17;137149;1276;22438;-79
2024/01/25 06:48:01;;;;;;;;;;;;;;;5.58;77.30;100030.09;137127;1276;23256;-77
2024/01/25 06:51:02;;;;;;;11.60;3.00;;;;;;;5.55;77.26;100026.15;137154;1276;23027;-77
2024/01/25 06:54:03;;;;;;;17.10;3.40;;;;;;;5.53;77.17;100024.06;137142;1276;22784;-77
2024/01/25 06:57:04;;;;;;;12.60;2.90;;;;;;;5.55;77.20;100031.93;137091;1276;22343;-77
2024/01/25 07:00:15;;;;;;;10.20;3.40;;;;;;;5.57;77.09;100029.83;136997;1276;22226;-77
2024/01/25 07:03:21;;;;;;;14.30;3.00;;;;;;;5.58;77.36;100023.08;137020;1276;22368;-76
2024/01/25 07:07:06;;;;;;;12.60;3.30;;;;;;;5.62;76.60;100032.88;137129;1276;22399;-80
2024/01/25 07:10:52;;;;;;;11.90;3.00;;;;;;;5.67;76.31;100043.33;137055;1276;22384;-90
2024/01/25 07:18:24;;;;;;;15.20;3.20;;;;;;;5.74;76.01;100070.27;136941;1276;22383;-76
2024/01/25 07:21:28;;;;;;;15.60;3.40;;;;;;;5.75;75.79;100077.58;137153;1276;23209;-75
2024/01/25 07:24:32;;;;;;;;;;;;;;;5.78;75.38;100086.42;137096;1276;22386;-78
2024/01/25 07:27:32;;;;;;;20.40;3.20;;;;;;;5.81;75.48;100081.08;137015;1276;22204;-78
2024/01/25 07:30:33;;;;;;;;;;;;;;;5.81;75.11;100084.20;136992;1276;22978;-78
2024/01/25 07:33:36;;;;;;;17.60;3.70;;;;;;;5.84;74.67;100082.48;137148;1276;22339;-79
2024/01/25 07:36:49;;;;;;;11.10;2.90;;;;;;;5.89;74.63;100089.35;137105;1276;22425;-79
2024/01/25 07:40:25;;;;;;;14.90;3.00;;;;;;;5.92;73.82;100093.30;137121;1276;22302;-79
2024/01/25 07:44:16;;;;;;;;;;;;;;;;;;;;;
2024/01/25 07:49:03;;;;;;;10.20;3.20;;;;;;;6.01;73.11;100117.44;136804;1276;22225;-79
2024/01/25 07:55:38;;;;;;;18.00;3.20;;;;;;;6.01;72.32;100124.73;136915;1276;23086;-79
2024/01/25 07:58:52;;;;;;;;;;;;;;;;;;;;;
2024/01/25 08:02:16;;;;;;;;;;;;;;;;;;;;;
2024/01/25 08:05:50;;;;;;;14.10;3.70;;;;;;;6.11;71.43;100147.23;137106;1276;22380;-79
2024/01/25 08:08:52;;;;;;;15.40;4.00;;;;;;;6.08;71.63;100144.87;137109;1276;22353;-78
2024/01/25 08:11:52;;;;;;;;;;;;;;;6.06;71.37;100146.45;137063;1270;22365;-79
2024/01/25 08:14:53;;;;;;;14.70;3.60;;;;;;;6.07;71.20;100146.20;137071;1276;22404;-78
2024/01/25 08:17:53;;;;;;;;;;;;;;;6.08;71.00;100145.39;136983;1276;22371;-77
2024/01/25 08:20:58;;;;;;;14.00;3.20;;;;;;;6.10;70.38;100145.59;137120;1276;22384;-77
2024/01/25 08:23:59;;;;;;;15.70;3.60;;;;;;;6.13;70.39;100164.98;137095;1276;22613;-78
2024/01/25 08:27:00;;;;;;;15.20;4.10;;;;;;;6.14;70.32;100168.45;137025;1269;22327;-77
2024/01/25 08:30:01;;;;;;;15.60;3.10;;;;;;;6.14;70.48;100168.80;137123;1276;22385;-77
2024/01/25 08:33:04;;;;;;;16.70;3.30;;;;;;;6.14;69.84;100163.34;137100;1265;22294;-78
2024/01/25 08:36:05;;;;;;;12.40;3.40;;;;;;;6.17;70.13;100172.73;137113;1276;22253;-78
2024/01/25 08:39:06;;;;;;;21.10;3.40;;;;;;;6.21;69.51;100168.79;137103;1274;22367;-77
2024/01/25 08:42:51;;;;;;;13.80;4.00;;;;;;;6.27;69.44;100169.90;137073;1276;22366;-77
2024/01/25 08:45:55;;;;;;;18.30;4.30;;;;;;;6.28;69.63;100176.05;137092;1276;22428;-78
2024/01/25 08:48:55;;;;;;;14.40;3.30;;;;;;;6.28;69.35;100188.02;137088;1273;22357;-77
2024/01/25 08:51:56;;;;;;;22.30;4.90;;;;;;;6.28;69.47;100193.63;136939;1276;22378;-77
2024/01/25 08:55:17;;;;;;;;;;;;;;;6.30;69.60;100189.46;137115;1269;22373;-78
2024/01/25 08:58:18;;;;;;;;;;;;;;;6.33;69.46;100191.69;137052;1276;22452;-77
2024/01/25 09:01:19;;;;;;;14.20;3.60;;;;;;;6.36;69.71;100197.60;137085;1276;22362;-77
2024/01/25 09:04:19;;;;;;;;;;;;;;;6.36;69.59;100203.20;137132;1273;22377;-80
2024/01/25 09:07:20;;;;;;;17.50;3.70;;;;;;;6.35;69.33;100210.77;137050;1276;22290;-78
2024/01/25 09:10:21;;;;;;;16.30;3.80;;;;;;;6.37;69.57;100218.70;137068;1276;22378;-78
2024/01/25 09:13:21;;;;;;;;;;;;;;;6.38;69.60;100217.71;137068;1276;22358;-78
2024/01/25 09:16:28;;;;;;;12.30;3.80;;;;;;;6.38;69.35;100219.48;137072;1276;22361;-79
2024/01/25 09:20:22;;;;;;;;;;;;;;;;;;;;;
2024/01/25 09:28:18;;;;;;;;;;;;;;;;;;;;;
2024/01/25 09:35:50;;;;;;;18.30;3.70;;;;;;;6.41;69.50;100249.23;136935;1276;23074;-78
2024/01/25 09:38:51;;;;;;;17.80;3.60;;;;;;;6.43;69.17;100237.64;137026;1276;22375;-78
2024/01/25 09:41:52;;;;;;;21.90;4.30;;;;;;;6.46;69.48;100248.86;136909;1276;22386;-78
2024/01/25 09:44:54;;;;;;;16.90;3.90;;;;;;;6.50;69.14;100246.36;137038;1276;22356;-78
2024/01/25 09:47:55;;;;;;;13.00;4.20;;;;;;;6.54;69.36;100252.17;137012;1276;22358;-78
2024/01/25 09:50:55;;;;;;;;;;;;;;;6.59;69.32;100255.77;137023;1276;22395;-78
2024/01/25 09:53:58;;;;;;;14.50;3.60;;;;;;;6.63;69.20;100264.88;137062;1276;22355;-79
2024/01/25 09:57:00;;;;;;;16.60;3.50;;;;;;;6.66;69.01;100268.33;137051;1276;23039;-79
2024/01/25 10:00:01;;;;;;;13.90;3.10;;;;;;;6.66;68.48;100272.66;137034;1274;22348;-79
2024/01/25 10:03:08;;;;;;;18.30;4.30;;;;;;;6.68;68.79;100274.44;137054;1276;22392;-78
2024/01/25 10:06:16;;;;;;;20.00;3.70;;;;;;;6.66;68.83;100280.29;137053;1276;22411;-78
2024/01/25 10:09:24;;;;;;;13.00;2.70;;;;;;;6.61;68.60;100281.23;136984;1276;22284;-78
2024/01/25 10:12:34;;;;;;;10.90;3.00;;;;;;;6.56;68.43;100278.17;137068;1276;23675;-79
2024/01/25 10:15:47;;;;;;;11.20;2.80;;;;;;;6.54;68.74;100292.63;137020;1276;22317;-77
2024/01/25 10:18:52;;;;;;;11.30;2.80;;;;;;;6.52;68.65;100290.79;137054;1276;22293;-77
2024/01/25 10:22:05;;;;;;;18.30;3.50;;;;;;;6.55;68.28;100290.94;137088;1276;22354;-78
2024/01/25 10:25:14;;;;;;;18.00;3.60;;;;;;;6.58;68.11;100291.02;137079;1276;22393;-78
2024/01/25 10:28:18;;;;;;;9.10;2.60;;;;;;;6.57;68.63;100308.45;137052;1276;22303;-78
2024/01/25 10:31:24;;;;;;;14.00;3.60;;;;;;;6.58;68.49;100298.73;136948;1276;22355;-78
2024/01/25 10:34:25;;;;;;;13.60;3.00;;;;;;;6.60;68.84;100304.13;137045;1276;22290;-78
2024/01/25 10:37:28;;;;;;;9.80;2.30;;;;;;;6.65;68.76;100297.77;137031;1276;22305;-78
2024/01/25 10:40:31;;;;;;;16.50;3.30;;;;;;;6.67;68.57;100292.30;136804;1276;22412;-78
2024/01/25 10:43:32;;;;;;;13.50;4.20;;;;;;;6.69;68.13;100293.39;137061;1276;22378;-79
2024/01/25 10:46:34;;;;;;;12.40;3.00;;;;;;;6.66;68.03;100300.27;136914;1276;22354;-78
2024/01/25 10:49:40;;;;;;;13.20;3.20;;;;;;;6.63;67.68;100308.10;137041;1276;22427;-80
2024/01/25 10:52:42;;;;;;;14.00;3.30;;;;;;;6.62;68.30;100308.73;137100;1276;22305;-77
2024/01/25 10:55:44;;;;;;;13.20;2.60;;;;;;;6.61;67.95;100310.25;136916;1276;22237;-76
2024/01/25 10:58:45;;;;;;;15.00;3.20;;;;;;;6.60;67.69;100314.72;136786;1276;22408;-75
2024/01/25 11:01:52;;;;;;;17.50;3.30;;;;;;;6.58;67.88;100322.11;137045;1269;22367;-75
2024/01/25 11:04:55;;;;;;;21.30;4.50;;;;;;;6.56;68.09;100320.02;137085;1276;22334;-75
2024/01/25 11:07:56;;;;;;;12.50;3.60;;;;;;;6.52;68.22;100318.59;137087;1276;22253;-77
2024/01/25 11:10:57;;;;;;;17.20;3.50;;;;;;;6.52;68.60;100325.81;137101;1276;22354;-75
2024/01/25 11:14:04;;;;;;;11.30;2.90;;;;;;;6.52;68.58;100333.49;137114;1276;22365;-76
2024/01/25 11:17:21;;;;;;;12.80;3.10;;;;;;;6.54;68.63;100331.27;136941;1276;22361;-73
2024/01/25 11:20:49;;;;;;;;;;;;;;;;;;;;;
2024/01/25 11:24:21;;;;;;;12.20;3.00;;;;;;;6.51;68.35;100330.11;137090;1276;23380;-73
2024/01/25 11:27:24;;;;;;;18.60;3.40;;;;;;;6.54;68.30;100326.73;137058;1276;22406;-73
2024/01/25 11:30:26;;;;;;;14.00;3.40;;;;;;;6.55;68.06;100331.20;136985;1274;22360;-72
2024/01/25 11:33:30;;;;;;;13.80;2.90;;;;;;;6.54;68.07;100333.20;137006;1276;22347;-76
2024/01/25 11:36:33;;;;;;;15.30;3.70;;;;;;;6.55;67.78;100330.14;137090;1276;23166;-74
2024/01/25 11:39:34;;;;;;;10.60;3.00;;;;;;;6.57;67.78;100334.35;137092;1276;22432;-73
2024/01/25 11:42:35;;;;;;;8.70;3.40;;;;;;;6.58;67.41;100331.23;137009;1276;22390;-73
2024/01/25 11:45:42;;;;;;;21.00;3.40;;;;;;;6.60;67.42;100332.63;137079;1276;22377;-74
2024/01/25 11:48:52;;;;;;;17.60;3.60;;;;;;;6.60;67.35;100331.11;137145;1276;22325;-73
2024/01/25 11:52:33;;;;;;;;;;;;;;;;;;;;;
2024/01/25 11:55:50;;;;;;;;;;;;;;;;;;;;;
2024/01/25 12:03:55;;;;;;;14.10;3.60;;;;;;;6.56;67.91;100318.23;136919;1276;22393;-74
2024/01/25 12:07:21;;;;;;;19.30;4.20;;;;;;;6.55;68.25;100314.98;137069;1276;22383;-74
2024/01/25 12:10:29;;;;;;;14.90;3.00;;;;;;;6.57;68.06;100314.31;137087;1276;22271;-72
2024/01/25 12:13:59;;;;;;;13.00;3.60;;;;;;;6.60;68.11;100315.25;137134;1276;22367;-72
2024/01/25 12:17:26;;;;;;;10.60;3.20;;;;;;;6.63;67.88;100310.70;136912;1276;23016;-72
2024/01/25 12:21:14;;;;;;;17.80;4.20;;;;;;;6.66;68.48;100310.27;136874;1276;22475;-72
2024/01/25 12:24:19;;;;;;;11.90;3.20;;;;;;;6.70;68.03;100302.41;137088;1276;22269;-73
2024/01/25 12:27:35;;;;;;;14.50;3.50;;;;;;;6.73;67.73;100302.30;137043;1276;23298;-72
2024/01/25 12:30:36;;;;;;;10.40;3.30;;;;;;;6.77;67.77;100303.17;137049;1272;22372;-72
2024/01/25 12:33:36;;;;;;;;;;;;;;;6.80;67.32;100299.75;137103;1276;22411;-72
2024/01/25 12:36:38;;;;;;;11.50;3.20;;;;;;;6.89;67.67;100309.34;137050;1276;22366;-72
2024/01/25 12:39:39;;;;;;;11.80;2.70;;;;;;;6.94;67.55;100311.45;137062;1276;22413;-72
2024/01/25 12:42:40;;;;;;;16.70;3.50;;;;;;;6.98;66.97;100310.98;137086;1276;23144;-72
2024/01/25 12:46:00;;;;;;;;;;;;;;;;;;;;;
2024/01/25 12:49:27;;;;;;;;;;;;;;;;;;;;;
2024/01/25 12:53:37;;;;;;;14.70;3.60;;;;;;;6.96;65.70;100316.57;137111;1276;22400;-72
2024/01/25 12:56:46;;;;;;;11.40;3.20;;;;;;;6.94;65.46;100314.48;137080;1276;22324;-72
2024/01/25 12:59:47;;;;;;;15.80;3.20;;;;;;;6.93;64.91;100312.84;137106;1276;22940;-73
2024/01/25 13:02:48;;;;;;;15.10;4.10;;;;;;;6.91;64.94;100327.27;137110;1273;22361;-72
2024/01/25 13:05:49;;;;;;;16.30;4.10;;;;;;;6.88;64.93;100330.17;137066;1276;22414;-72
2024/01/25 13:08:50;;;;;;;14.30;3.50;;;;;;;6.86;65.18;100328.71;137060;1276;22343;-72
2024/01/25 13:11:54;;;;;;;13.80;3.50;;;;;;;6.85;64.95;100335.33;137086;1276;22354;-73
2024/01/25 13:15:26;;;;;;;;;;;;;;;;;;;;;
2024/01/25 13:18:32;;;;;;;17.70;3.80;;;;;;;6.86;64.80;100334.58;137077;1276;22316;-72
2024/01/25 13:21:53;;;;;;;15.90;4.20;;;;;;;6.86;64.66;100332.21;137104;1276;23428;-73
2024/01/25 13:25:55;;;;;;;14.80;3.20;;;;;;;6.88;64.36;100334.42;137095;1276;22340;-72
2024/01/25 13:28:59;;;;;;;18.80;4.10;;;;;;;6.86;64.58;100339.11;136950;1276;22443;-73
2024/01/25 13:37:31;;;;;;;11.60;3.00;;;;;;;6.81;64.11;100344.55;137082;1276;22385;-72
2024/01/25 13:41:01;;;;;;;11.80;3.10;;;;;;;6.79;64.79;100343.12;136880;1276;22466;-72
2024/01/25 13:44:25;;;;;;;9.20;2.90;;;;;;;6.78;64.23;100340.92;137060;1276;22295;-72
2024/01/25 13:47:56;;;;;;;11.40;3.00;;;;;;;6.79;64.76;100348.54;136943;1276;22391;-72
2024/01/25 13:51:48;;;;;;;9.90;3.30;;;;;;;6.79;64.92;100346.84;137072;1277;22387;-72
2024/01/25 13:54:52;;;;;;;10.60;2.90;;;;;;;6.74;63.66;100329.86;137090;1276;22272;-72
2024/01/25 13:57:53;;;;;;;10.70;2.30;;;;;;;6.72;63.74;100339.33;137099;1276;23155;-72
2024/01/25 14:00:56;;;;;;;;;;;;;;;6.69;63.60;100341.14;137159;1272;23461;-72
2024/01/25 14:03:59;;;;;;;14.20;3.00;;;;;;;6.65;63.92;100348.88;137070;1276;22436;-72
2024/01/25 14:06:59;;;;;;;;;;;;;;;6.63;64.26;100355.20;137077;1277;23241;-72
2024/01/25 14:10:00;;;;;;;12.90;3.60;;;;;;;6.59;64.29;100346.48;137055;1276;22939;-73
2024/01/25 14:13:01;;;;;;;;;;;;;;;6.55;64.20;100343.27;137089;1276;22451;-72
2024/01/25 14:16:17;;;;;;;;;;;;;;;;;;;;;
2024/01/25 14:19:28;;;;;;;10.40;2.70;;;;;;;6.50;64.51;100349.17;137058;1275;22375;-73
2024/01/25 14:22:31;;;;;;;14.80;4.10;;;;;;;6.48;64.27;100347.25;137062;1276;23075;-73
2024/01/25 14:25:32;;;;;;;12.60;3.30;;;;;;;6.48;64.08;100357.80;137109;1276;22411;-72
2024/01/25 14:28:38;;;;;;;15.20;3.50;;;;;;;6.47;64.21;100366.48;136946;1276;23540;-73
2024/01/25 14:31:50;;;;;;;12.30;3.10;;;;;;;6.45;64.28;100364.73;137064;1272;23066;-73
2024/01/25 14:34:51;;;;;;;9.70;2.60;;;;;;;6.43;64.35;100369.83;137091;1276;23070;-72
2024/01/25 14:37:52;;;;;;;16.40;3.20;;;;;;;6.41;64.27;100382.08;137060;1276;22998;-72
2024/01/25 14:40:53;;;;;;;20.20;4.00;;;;;;;6.42;64.37;100385.89;137097;1276;23137;-72
2024/01/25 14:43:53;;;;;;;;;;;;;;;6.42;64.18;100401.70;137127;1276;22456;-72
2024/01/25 14:46:54;;;;;;;10.30;3.60;;;;;;;6.40;64.48;100404.86;137133;1276;22399;-72
2024/01/25 14:49:54;;;;;;;;;;;;;;;6.38;64.39;100403.85;137086;1276;22380;-72
2024/01/25 14:52:55;;;;;;;12.40;3.10;;;;;;;6.36;64.55;100415.77;137111;1276;23153;-72
2024/01/25 14:55:56;;;;;;;16.30;3.70;;;;;;;6.34;64.51;100420.56;137137;1276;22262;-72
2024/01/25 14:58:57;;;;;;;25.10;4.50;;;;;;;6.28;64.60;100429.44;137138;1276;22349;-71
2024/01/25 15:01:58;;;;;;;;;;;;;;;6.22;64.49;100432.19;137153;1272;23111;-71
2024/01/25 15:05:00;;;;;;;12.50;3.50;;;;;;;6.19;64.74;100444.63;137114;1276;23234;-72
2024/01/25 15:08:00;;;;;;;12.10;3.70;;;;;;;6.16;64.95;100451.55;137118;1276;23087;-71
2024/01/25 15:11:04;;;;;;;;;;;;;;;6.12;64.96;100451.93;137081;1276;23085;-73
2024/01/25 15:14:38;;;;;;;;;;;;;;;;;;;;;
2024/01/25 15:17:53;;;;;;;15.40;3.70;;;;;;;6.03;65.33;100472.54;137030;1276;23281;-71
2024/01/25 15:20:57;;;;;;;15.20;3.70;;;;;;;6.00;65.22;100469.41;137120;1276;22317;-72
2024/01/25 15:24:01;;;;;;;15.60;3.30;;;;;;;6.00;65.18;100472.73;137126;1272;22356;-72
2024/01/25 15:27:02;;;;;;;12.20;3.50;;;;;;;5.99;65.32;100475.27;137090;1276;23102;-72
2024/01/25 15:30:03;;;;;;;17.50;3.30;;;;;;;5.96;65.05;100481.30;137134;1276;22397;-71
2024/01/25 15:33:05;;;;;;;19.30;3.80;;;;;;;5.95;65.46;100486.89;137088;1273;22556;-71
2024/01/25 15:36:06;;;;;;;15.00;3.30;;;;;;;5.92;65.54;100495.34;137133;1276;23182;-71
2024/01/25 15:39:07;;;;;;;11.50;3.60;;;;;;;5.90;65.37;100499.20;137131;1276;22556;-73
2024/01/25 15:42:11;;;;;;;15.00;4.10;;;;;;;5.91;65.54;100509.31;137109;1276;22406;-71
2024/01/25 15:45:18;;;;;;;13.40;4.10;;;;;;;5.92;65.34;100520.14;137094;1276;22328;-71